createdAt,value
2019-02-22T00:00:52.009Z,8.30
2019-02-22T00:03:23.208Z,8.30
2019-02-22T00:05:54.239Z,8.30
2019-02-22T00:08:25.446Z,8.30
2019-02-22T00:10:56.647Z,8.30
2019-02-22T00:13:27.756Z,8.30
2019-02-22T00:15:59.310Z,8.30
2019-02-22T00:18:30.759Z,8.30
2019-02-22T00:21:02.082Z,8.30
2019-02-22T00:23:33.200Z,8.30
2019-02-22T00:26:04.440Z,8.30
2019-02-22T00:28:36.255Z,8.20
2019-02-22T00:31:08.824Z,8.30
2019-02-22T00:33:39.967Z,8.30
2019-02-22T00:36:11.124Z,8.30
2019-02-22T00:38:42.472Z,8.30
2019-02-22T00:41:13.521Z,8.30
2019-02-22T00:43:44.932Z,8.20
2019-02-22T00:46:16.303Z,8.20
2019-02-22T00:48:47.770Z,8.20
2019-02-22T00:51:18.999Z,8.20
2019-02-22T00:53:50.208Z,8.30
2019-02-22T00:56:21.724Z,8.30
2019-02-22T00:58:53.017Z,8.30
2019-02-22T01:01:24.147Z,8.30
2019-02-22T01:03:55.300Z,8.30
2019-02-22T01:06:26.658Z,8.30
2019-02-22T01:08:57.800Z,8.30
2019-02-22T01:11:29.018Z,8.30
2019-02-22T01:14:02.125Z,8.30
2019-02-22T01:16:37.596Z,8.30
2019-02-22T01:19:09.254Z,8.30
2019-02-22T01:21:40.541Z,8.30
2019-02-22T01:24:12.151Z,8.40
2019-02-22T01:26:43.597Z,8.30
2019-02-22T01:29:14.664Z,8.30
2019-02-22T01:31:45.790Z,8.30
2019-02-22T01:34:17.244Z,8.30
2019-02-22T01:36:48.780Z,8.30
2019-02-22T01:39:19.925Z,8.30
2019-02-22T01:41:51.051Z,8.40
2019-02-22T01:44:23.578Z,8.40
2019-02-22T01:46:54.845Z,8.40
2019-02-22T01:49:26.339Z,8.40
2019-02-22T01:51:57.668Z,8.40
2019-02-22T01:54:29.155Z,8.40
2019-02-22T01:57:00.409Z,8.40
2019-02-22T01:59:31.521Z,8.30
2019-02-22T02:02:03.078Z,8.30
2019-02-22T02:04:34.135Z,8.30
2019-02-22T02:07:05.753Z,8.30
2019-02-22T02:12:04.947Z,8.30
2019-02-22T02:14:36.606Z,8.20
2019-02-22T02:17:08.154Z,8.30
2019-02-22T02:19:39.304Z,8.30
2019-02-22T02:22:10.482Z,8.30
2019-02-22T02:24:42.032Z,8.30
2019-02-22T02:27:13.204Z,8.30
2019-02-22T02:29:44.343Z,8.30
2019-02-22T02:32:15.456Z,8.40
2019-02-22T02:34:46.660Z,8.40
2019-02-22T02:37:17.934Z,8.40
2019-02-22T02:39:49.201Z,8.40
2019-02-22T02:42:20.722Z,8.40
2019-02-22T02:44:52.036Z,8.40
2019-02-22T02:47:23.448Z,8.40
2019-02-22T02:49:54.567Z,8.40
2019-02-22T02:52:25.699Z,8.40
2019-02-22T02:54:57.195Z,8.50
2019-02-22T02:57:28.671Z,8.50
2019-02-22T02:59:59.731Z,8.50
2019-02-22T03:02:31.756Z,8.50
2019-02-22T03:05:02.957Z,8.50
2019-02-22T03:07:44.877Z,8.50
2019-02-22T03:10:16.431Z,8.50
2019-02-22T03:12:47.539Z,8.50
2019-02-22T03:15:19.640Z,8.50
2019-02-22T03:17:50.889Z,8.50
2019-02-22T03:20:22.094Z,8.50
2019-02-22T03:22:53.258Z,8.50
2019-02-22T03:25:24.310Z,8.50
2019-02-22T03:27:55.771Z,8.50
2019-02-22T03:30:27.317Z,8.50
2019-02-22T03:32:58.804Z,8.60
2019-02-22T03:35:30.534Z,8.60
2019-02-22T03:38:01.805Z,8.60
2019-02-22T03:40:34.041Z,8.60
2019-02-22T03:43:05.296Z,8.60
2019-02-22T03:45:36.572Z,8.60
2019-02-22T03:48:08.881Z,8.60
2019-02-22T03:50:40.589Z,8.60
2019-02-22T03:53:30.633Z,8.60
2019-02-22T03:56:01.855Z,8.60
2019-02-22T03:58:33.106Z,8.60
2019-02-22T04:01:04.382Z,8.60
2019-02-22T04:03:35.570Z,8.60
2019-02-22T04:06:06.710Z,8.60
2019-02-22T04:08:37.884Z,8.60
2019-02-22T04:11:09.151Z,8.60
2019-02-22T04:13:40.669Z,8.60
2019-02-22T04:16:11.797Z,8.60
2019-02-22T04:18:43.054Z,8.60
2019-02-22T04:21:14.196Z,8.60
2019-02-22T04:23:45.479Z,8.60
2019-02-22T04:26:16.610Z,8.60
2019-02-22T04:28:48.176Z,8.60
2019-02-22T04:31:19.722Z,8.60
2019-02-22T04:33:51.077Z,8.60
2019-02-22T04:36:22.531Z,8.60
2019-02-22T04:38:53.575Z,8.60
2019-02-22T04:41:24.784Z,8.60
2019-02-22T04:43:56.236Z,8.60
2019-02-22T04:46:27.496Z,8.60
2019-02-22T04:48:58.857Z,8.60
2019-02-22T04:51:30.122Z,8.60
2019-02-22T04:54:01.584Z,8.60
2019-02-22T04:56:33.108Z,8.60
2019-02-22T04:59:04.587Z,8.60
2019-02-22T05:01:35.629Z,8.60
2019-02-22T05:04:06.877Z,8.60
2019-02-22T05:06:38.082Z,8.60
2019-02-22T05:09:09.254Z,8.60
2019-02-22T05:11:40.858Z,8.60
2019-02-22T05:14:12.450Z,8.60
2019-02-22T05:16:43.791Z,8.50
2019-02-22T05:19:14.938Z,8.60
2019-02-22T05:21:46.251Z,8.60
2019-02-22T05:24:17.245Z,8.60
2019-02-22T05:26:48.296Z,8.60
2019-02-22T05:29:19.954Z,8.60
2019-02-22T05:31:51.038Z,8.60
2019-02-22T05:34:22.391Z,8.50
2019-02-22T05:36:53.561Z,8.50
2019-02-22T05:39:24.952Z,8.50
2019-02-22T05:41:56.160Z,8.50
2019-02-22T05:44:27.181Z,8.50
2019-02-22T05:47:00.570Z,8.50
2019-02-22T05:49:31.155Z,8.50
2019-02-22T05:52:02.571Z,8.50
2019-02-22T05:54:33.671Z,8.50
2019-02-22T05:57:04.873Z,8.50
2019-02-22T05:59:35.972Z,8.50
2019-02-22T06:02:07.629Z,8.50
2019-02-22T06:04:38.795Z,8.50
2019-02-22T06:07:09.993Z,8.50
2019-02-22T06:09:41.653Z,8.50
2019-02-22T06:12:12.689Z,8.50
2019-02-22T06:14:43.714Z,8.50
2019-02-22T06:17:15.091Z,8.40
2019-02-22T06:19:46.254Z,8.50
2019-02-22T06:22:29.059Z,8.40
2019-02-22T06:24:50.984Z,8.40
2019-02-22T06:27:22.220Z,8.50
2019-02-22T06:29:53.716Z,8.50
2019-02-22T06:32:24.763Z,8.40
2019-02-22T06:34:55.857Z,8.40
2019-02-22T06:37:27.044Z,8.40
2019-02-22T06:39:58.534Z,8.50
2019-02-22T06:42:30.038Z,8.50
2019-02-22T06:45:01.136Z,8.50
2019-02-22T06:47:32.390Z,8.50
2019-02-22T06:50:03.626Z,8.40
2019-02-22T06:52:34.678Z,8.40
2019-02-22T06:55:06.221Z,8.40
2019-02-22T06:57:37.289Z,8.40
2019-02-22T07:00:10.010Z,8.40
2019-02-22T07:02:41.536Z,8.40
2019-02-22T07:05:12.776Z,8.40
2019-02-22T07:07:44.219Z,8.40
2019-02-22T07:10:15.362Z,8.40
2019-02-22T07:12:57.016Z,8.40
2019-02-22T07:15:28.589Z,8.40
2019-02-22T07:17:59.740Z,8.40
2019-02-22T07:20:30.747Z,8.40
2019-02-22T07:23:01.803Z,8.40
2019-02-22T07:25:33.104Z,8.30
2019-02-22T07:28:05.885Z,8.30
2019-02-22T07:30:36.981Z,8.30
2019-02-22T07:33:08.417Z,8.30
2019-02-22T07:35:39.499Z,8.30
2019-02-22T07:38:10.618Z,8.20
2019-02-22T07:40:42.066Z,8.20
2019-02-22T07:43:13.614Z,8.20
2019-02-22T07:45:44.631Z,8.20
2019-02-22T07:48:16.106Z,8.20
2019-02-22T07:50:56.913Z,8.20
2019-02-22T07:53:20.124Z,8.20
2019-02-22T07:55:51.393Z,8.10
2019-02-22T07:58:22.613Z,8.20
2019-02-22T08:00:53.795Z,8.20
2019-02-22T08:03:25.218Z,8.10
2019-02-22T08:05:57.310Z,8.10
2019-02-22T08:08:28.694Z,8.10
2019-02-22T08:10:59.864Z,8.10
2019-02-22T08:13:31.429Z,8.20
2019-02-22T08:16:02.874Z,8.20
2019-02-22T08:18:34.429Z,8.10
2019-02-22T08:21:06.010Z,8.10
2019-02-22T08:23:37.058Z,8.20
2019-02-22T08:26:08.249Z,8.20
2019-02-22T08:28:39.444Z,8.20
2019-02-22T08:31:10.711Z,8.20
2019-02-22T08:33:42.015Z,8.20
2019-02-22T08:36:13.254Z,8.20
2019-02-22T08:38:44.302Z,8.20
2019-02-22T08:41:15.386Z,8.20
2019-02-22T08:43:46.673Z,8.20
2019-02-22T08:46:18.015Z,8.30
2019-02-22T08:48:49.223Z,8.30
2019-02-22T08:51:20.330Z,8.30
2019-02-22T08:53:51.395Z,8.30
2019-02-22T08:56:22.483Z,8.30
2019-02-22T08:58:53.607Z,8.30
2019-02-22T09:01:24.703Z,8.30
2019-02-22T09:03:55.896Z,8.30
2019-02-22T09:06:27.269Z,8.30
2019-02-22T09:08:58.818Z,8.30
2019-02-22T09:11:30.183Z,8.30
2019-02-22T09:14:01.295Z,8.30
2019-02-22T09:16:32.525Z,8.30
2019-02-22T09:19:03.657Z,8.40
2019-02-22T09:21:35.151Z,8.40
2019-02-22T09:24:06.422Z,8.40
2019-02-22T09:26:37.591Z,8.40
2019-02-22T09:29:09.096Z,8.50
2019-02-22T09:31:40.127Z,8.50
2019-02-22T09:34:11.312Z,8.50
2019-02-22T09:36:42.495Z,8.50
2019-02-22T09:39:14.066Z,8.50
2019-02-22T09:41:45.096Z,8.40
2019-02-22T09:44:16.212Z,8.40
2019-02-22T09:46:47.946Z,8.40
2019-02-22T09:49:19.276Z,8.40
2019-02-22T09:51:50.839Z,8.40
2019-02-22T09:54:22.033Z,8.40
2019-02-22T09:56:53.198Z,8.40
2019-02-22T09:59:24.630Z,8.40
2019-02-22T10:01:55.882Z,8.30
2019-02-22T10:04:27.038Z,8.30
2019-02-22T10:06:59.392Z,8.20
2019-02-22T10:09:30.658Z,8.20
2019-02-22T10:12:01.846Z,8.20
2019-02-22T10:14:32.893Z,8.30
2019-02-22T10:17:04.150Z,8.20
2019-02-22T10:19:35.703Z,8.20
2019-02-22T10:22:07.214Z,8.20
2019-02-22T10:24:38.403Z,8.20
2019-02-22T10:27:12.018Z,8.20
2019-02-22T10:29:42.612Z,8.30
2019-02-22T10:32:15.917Z,8.20
2019-02-22T10:34:46.543Z,8.20
2019-02-22T10:37:17.774Z,8.10
2019-02-22T10:39:49.020Z,8.10
2019-02-22T10:42:20.572Z,8.00
2019-02-22T10:44:52.840Z,8.00
2019-02-22T10:47:24.079Z,7.90
2019-02-22T10:49:55.202Z,7.90
2019-02-22T10:52:26.346Z,7.90
2019-02-22T10:54:57.527Z,7.90
2019-02-22T10:57:28.953Z,7.90
2019-02-22T11:00:00.448Z,7.90
2019-02-22T11:02:31.544Z,7.90
2019-02-22T11:05:03.178Z,7.90
2019-02-22T11:07:37.272Z,7.90
2019-02-22T11:10:10.259Z,7.80
2019-02-22T11:12:42.588Z,7.80
2019-02-22T11:15:14.306Z,7.80
2019-02-22T11:17:45.466Z,7.70
2019-02-22T11:20:17.399Z,7.60
2019-02-22T11:22:48.513Z,7.50
2019-02-22T11:25:19.739Z,7.40
2019-02-22T11:27:50.760Z,7.30
2019-02-22T11:30:21.838Z,7.20
2019-02-22T11:32:53.465Z,7.20
2019-02-22T11:35:24.659Z,7.10
2019-02-22T11:37:56.015Z,7.10
2019-02-22T11:40:27.123Z,7.10
2019-02-22T11:42:58.302Z,7.10
2019-02-22T11:45:29.486Z,7.10
2019-02-22T11:48:09.203Z,7.10
2019-02-22T11:50:35.050Z,7.00
2019-02-22T11:53:06.565Z,7.00
2019-02-22T11:55:37.680Z,7.00
2019-02-22T11:58:10.726Z,6.90
2019-02-22T12:00:42.140Z,6.80
2019-02-22T12:03:24.295Z,6.80
2019-02-22T12:05:46.514Z,6.80
2019-02-22T12:08:17.852Z,6.80
2019-02-22T12:10:49.184Z,6.80
2019-02-22T12:13:20.266Z,6.70
2019-02-22T12:15:51.976Z,6.70
2019-02-22T12:18:23.058Z,6.70
2019-02-22T12:20:54.191Z,6.70
2019-02-22T12:23:25.339Z,6.70
2019-02-22T12:25:56.363Z,6.70
2019-02-22T12:28:27.555Z,6.70
2019-02-22T12:30:58.759Z,6.60
2019-02-22T12:33:29.817Z,6.60
2019-02-22T12:36:00.912Z,6.60
2019-02-22T12:38:32.118Z,6.70
2019-02-22T12:41:03.131Z,6.60
2019-02-22T12:43:34.832Z,6.60
2019-02-22T12:46:05.985Z,6.60
2019-02-22T12:48:37.252Z,6.60
2019-02-22T12:51:08.431Z,6.60
2019-02-22T12:53:39.725Z,6.70
2019-02-22T12:56:11.605Z,6.70
2019-02-22T12:58:42.655Z,6.70
2019-02-22T13:01:13.755Z,6.70
2019-02-22T13:03:44.880Z,6.70
2019-02-22T13:06:16.041Z,6.80
2019-02-22T13:08:48.133Z,6.80
2019-02-22T13:11:19.235Z,6.80
2019-02-22T13:13:50.441Z,6.80
2019-02-22T13:16:21.602Z,6.80
2019-02-22T13:18:52.748Z,6.80
2019-02-22T13:21:23.870Z,6.80
2019-02-22T13:23:57.273Z,6.70
2019-02-22T13:26:27.824Z,6.70
2019-02-22T13:28:58.884Z,6.70
2019-02-22T13:31:30.514Z,6.60
2019-02-22T13:34:01.671Z,6.60
2019-02-22T13:36:32.844Z,6.60
2019-02-22T13:39:05.575Z,6.50
2019-02-22T13:41:38.442Z,6.50
2019-02-22T13:44:09.714Z,6.50
2019-02-22T13:46:41.027Z,6.50
2019-02-22T13:49:12.321Z,6.40
2019-02-22T13:51:43.505Z,6.40
2019-02-22T13:54:15.258Z,6.40
2019-02-22T13:56:46.566Z,6.40
2019-02-22T13:59:17.703Z,6.40
2019-02-22T14:01:48.793Z,6.40
2019-02-22T14:04:19.870Z,6.30
2019-02-22T14:06:50.999Z,6.30
2019-02-22T14:09:22.079Z,6.20
2019-02-22T14:11:53.332Z,6.20
2019-02-22T14:14:24.604Z,6.20
2019-02-22T14:16:55.884Z,6.10
2019-02-22T14:19:27.035Z,6.10
2019-02-22T14:21:58.076Z,6.00
2019-02-22T14:24:29.212Z,6.00
2019-02-22T14:27:00.339Z,5.90
2019-02-22T14:29:31.496Z,5.90
2019-02-22T14:32:02.679Z,5.90
2019-02-22T14:34:33.880Z,5.90
2019-02-22T14:37:05.190Z,5.80
2019-02-22T14:39:38.778Z,5.90
2019-02-22T14:42:09.521Z,5.90
2019-02-22T14:44:40.668Z,5.90
2019-02-22T14:47:11.883Z,5.90
2019-02-22T14:49:43.088Z,5.90
2019-02-22T14:52:14.191Z,5.90
2019-02-22T14:54:45.371Z,5.80
2019-02-22T14:57:16.563Z,5.90
2019-02-22T14:59:49.057Z,5.90
2019-02-22T15:02:20.276Z,5.90
2019-02-22T15:04:51.562Z,5.90
2019-02-22T15:07:22.828Z,5.90
2019-02-22T15:09:53.948Z,5.90
2019-02-22T15:12:25.146Z,5.80
2019-02-22T15:14:56.223Z,5.80
2019-02-22T15:17:48.979Z,5.70
2019-02-22T15:20:20.249Z,5.70
2019-02-22T15:22:51.336Z,5.60
2019-02-22T15:25:22.494Z,5.60
2019-02-22T15:27:53.664Z,5.50
2019-02-22T15:30:24.871Z,5.40
2019-02-22T15:32:56.343Z,5.40
2019-02-22T15:35:27.721Z,5.40
2019-02-22T15:37:59.244Z,5.40
2019-02-22T15:40:30.519Z,5.30
2019-02-22T15:43:02.853Z,5.40
2019-02-22T15:45:34.521Z,5.30
2019-02-22T15:48:05.783Z,5.30
2019-02-22T15:50:37.017Z,5.30
2019-02-22T15:53:08.205Z,5.30
2019-02-22T15:55:39.491Z,5.30
2019-02-22T15:58:10.689Z,5.20
2019-02-22T16:00:41.921Z,5.20
2019-02-22T16:03:13.582Z,5.20
2019-02-22T16:05:45.776Z,5.20
2019-02-22T16:08:16.950Z,5.20
2019-02-22T16:10:48.096Z,5.20
2019-02-22T16:13:19.332Z,5.10
2019-02-22T16:15:50.557Z,5.10
2019-02-22T16:18:21.676Z,5.10
2019-02-22T16:20:54.093Z,5.10
2019-02-22T16:23:25.154Z,5.10
2019-02-22T16:25:56.688Z,5.10
2019-02-22T16:28:28.280Z,5.00
2019-02-22T16:30:59.600Z,5.00
2019-02-22T16:33:30.690Z,5.00
2019-02-22T16:36:01.762Z,4.90
2019-02-22T16:38:33.055Z,4.90
2019-02-22T16:41:04.262Z,4.90
2019-02-22T16:43:35.285Z,4.90
2019-02-22T16:46:06.871Z,4.90
2019-02-22T16:48:38.345Z,4.90
2019-02-22T16:51:09.415Z,4.90
2019-02-22T16:53:40.503Z,4.80
2019-02-22T16:56:11.762Z,4.80
2019-02-22T16:58:43.079Z,4.80
2019-02-22T17:01:14.420Z,4.80
2019-02-22T17:03:45.586Z,4.80
2019-02-22T17:06:17.130Z,4.70
2019-02-22T17:08:48.365Z,4.70
2019-02-22T17:11:19.576Z,4.60
2019-02-22T17:13:51.117Z,4.60
2019-02-22T17:16:22.172Z,4.50
2019-02-22T17:18:53.205Z,4.50
2019-02-22T17:21:24.261Z,4.60
2019-02-22T17:23:55.316Z,4.60
2019-02-22T17:26:26.678Z,4.60
2019-02-22T17:28:58.264Z,4.50
2019-02-22T17:31:29.404Z,4.50
2019-02-22T17:34:00.595Z,4.50
2019-02-22T17:36:33.022Z,4.40
2019-02-22T17:39:05.600Z,4.40
2019-02-22T17:41:38.761Z,4.40
2019-02-22T17:44:10.028Z,4.40
2019-02-22T17:46:41.245Z,4.40
2019-02-22T17:49:12.355Z,4.40
2019-02-22T17:51:43.554Z,4.40
2019-02-22T17:54:16.621Z,4.30
2019-02-22T17:56:47.699Z,4.30
2019-02-22T17:59:18.782Z,4.30
2019-02-22T18:01:50.358Z,4.30
2019-02-22T18:04:21.421Z,4.30
2019-02-22T18:06:52.656Z,4.30
2019-02-22T18:09:23.820Z,4.30
2019-02-22T18:11:54.897Z,4.30
2019-02-22T18:14:25.936Z,4.30
2019-02-22T18:17:07.754Z,4.20
2019-02-22T18:19:31.932Z,4.20
2019-02-22T18:22:03.109Z,4.10
2019-02-22T18:24:34.637Z,4.20
2019-02-22T18:27:05.914Z,4.10
2019-02-22T18:29:37.395Z,4.10
2019-02-22T18:32:08.780Z,4.10
2019-02-22T18:34:39.956Z,4.10
2019-02-22T18:37:11.499Z,4.10
2019-02-22T18:39:42.929Z,4.00
2019-02-22T18:42:14.481Z,4.00
2019-02-22T18:44:45.760Z,4.00
2019-02-22T18:47:19.676Z,4.00
2019-02-22T18:49:49.965Z,4.00
2019-02-22T18:52:21.551Z,4.00
2019-02-22T18:54:52.723Z,4.00
2019-02-22T18:57:24.208Z,4.00
2019-02-22T18:59:55.581Z,3.90
2019-02-22T19:02:27.203Z,3.90
2019-02-22T19:04:58.379Z,3.90
2019-02-22T19:07:29.449Z,3.90
2019-02-22T19:10:00.772Z,3.80
2019-02-22T19:12:32.604Z,3.80
2019-02-22T19:15:04.252Z,3.70
2019-02-22T19:17:35.400Z,3.70
2019-02-22T19:20:08.530Z,3.60
2019-02-22T19:22:40.068Z,3.60
2019-02-22T19:25:11.692Z,3.50
2019-02-22T19:27:42.889Z,3.50
2019-02-22T19:30:16.243Z,3.50
2019-02-22T19:32:48.083Z,3.50
2019-02-22T19:35:20.196Z,3.50
2019-02-22T19:37:51.505Z,3.50
2019-02-22T19:40:23.124Z,3.50
2019-02-22T19:42:54.312Z,3.50
2019-02-22T19:45:25.575Z,3.50
2019-02-22T19:47:56.969Z,3.50
2019-02-22T19:50:28.444Z,3.50
2019-02-22T19:53:00.202Z,3.50
2019-02-22T19:55:31.288Z,3.50
2019-02-22T19:58:02.365Z,3.50
2019-02-22T20:00:33.615Z,3.50
2019-02-22T20:03:04.880Z,3.50
2019-02-22T20:05:35.977Z,3.50
2019-02-22T20:08:07.240Z,3.40
2019-02-22T20:10:38.407Z,3.50
2019-02-22T20:13:09.517Z,3.40
2019-02-22T20:15:40.928Z,3.40
2019-02-22T20:18:12.005Z,3.40
2019-02-22T20:20:43.021Z,3.40
2019-02-22T20:23:14.627Z,3.40
2019-02-22T20:25:45.644Z,3.30
2019-02-22T20:28:16.780Z,3.30
2019-02-22T20:30:47.877Z,3.30
2019-02-22T20:33:19.034Z,3.20
2019-02-22T20:35:50.097Z,3.20
2019-02-22T20:38:21.335Z,3.20
2019-02-22T20:40:52.495Z,3.20
2019-02-22T20:43:23.591Z,3.20
2019-02-22T20:45:54.668Z,3.20
2019-02-22T20:48:26.166Z,3.20
2019-02-22T20:50:57.461Z,3.20
2019-02-22T20:53:28.959Z,3.20
2019-02-22T20:56:00.064Z,3.20
2019-02-22T20:58:31.251Z,3.20
2019-02-22T21:01:02.421Z,3.10
2019-02-22T21:03:33.488Z,3.20
2019-02-22T21:06:04.745Z,3.10
2019-02-22T21:08:35.869Z,3.00
2019-02-22T21:11:06.966Z,3.00
2019-02-22T21:13:38.044Z,3.00
2019-02-22T21:16:09.336Z,3.00
2019-02-22T21:18:40.497Z,2.90
2019-02-22T21:21:11.796Z,2.90
2019-02-22T21:23:43.260Z,2.90
2019-02-22T21:26:14.421Z,2.80
2019-02-22T21:28:46.445Z,2.80
2019-02-22T21:31:17.616Z,2.70
2019-02-22T21:33:48.821Z,2.70
2019-02-22T21:36:20.300Z,2.60
2019-02-22T21:38:51.512Z,2.60
2019-02-22T21:41:22.608Z,2.60
2019-02-22T21:43:54.275Z,2.60
2019-02-22T21:46:25.284Z,2.50
2019-02-22T21:48:56.780Z,2.50
2019-02-22T21:51:28.524Z,2.50
2019-02-22T21:54:00.617Z,2.50
2019-02-22T21:56:32.039Z,2.50
2019-02-22T21:59:03.256Z,2.50
2019-02-22T22:01:34.392Z,2.50
2019-02-22T22:04:05.676Z,2.50
2019-02-22T22:06:36.867Z,2.60
2019-02-22T22:09:08.297Z,2.50
2019-02-22T22:11:41.353Z,2.50
2019-02-22T22:14:13.715Z,2.60
2019-02-22T22:16:44.732Z,2.50
2019-02-22T22:19:16.216Z,2.60
2019-02-22T22:21:47.307Z,2.50
2019-02-22T22:24:18.357Z,2.50
2019-02-22T22:26:49.516Z,2.50
2019-02-22T22:29:20.758Z,2.30
2019-02-22T22:31:51.781Z,2.30
2019-02-22T22:34:22.901Z,2.30
2019-02-22T22:36:54.415Z,2.20
2019-02-22T22:39:25.475Z,2.20
2019-02-22T22:41:56.940Z,2.30
2019-02-22T22:44:27.977Z,2.30
2019-02-22T22:46:59.638Z,2.30
2019-02-22T22:49:30.696Z,2.30
2019-02-22T22:52:02.144Z,2.30
2019-02-22T22:54:33.193Z,2.20
2019-02-22T22:57:04.600Z,2.20
2019-02-22T22:59:35.729Z,2.20
2019-02-22T23:02:07.047Z,2.20
2019-02-22T23:04:38.232Z,2.20
2019-02-22T23:07:09.574Z,2.10
2019-02-22T23:09:41.531Z,2.10
2019-02-22T23:12:12.731Z,2.20
2019-02-22T23:14:43.845Z,2.20
2019-02-22T23:17:15.085Z,2.20
2019-02-22T23:19:46.504Z,2.20
2019-02-22T23:22:17.598Z,2.20
2019-02-22T23:24:49.040Z,2.10
2019-02-22T23:27:20.056Z,2.20
2019-02-22T23:29:51.239Z,2.20
2019-02-22T23:32:22.533Z,2.10
2019-02-22T23:34:53.743Z,2.10
2019-02-22T23:37:24.918Z,2.10
2019-02-22T23:39:56.274Z,2.10
2019-02-22T23:42:27.431Z,2.10
2019-02-22T23:44:58.616Z,2.10
2019-02-22T23:47:29.891Z,2.10
2019-02-22T23:50:00.983Z,2.10
2019-02-22T23:52:33.927Z,2.10
2019-02-22T23:55:06.788Z,2.00
2019-02-22T23:57:37.916Z,2.00
